createdAt,value
2023-05-22T00:01:45.435Z,10.80
2023-05-22T00:04:21.591Z,10.38
2023-05-22T00:06:49.686Z,10.15
2023-05-22T00:09:17.566Z,10.93
2023-05-22T00:11:45.561Z,10.50
2023-05-22T00:14:13.688Z,10.45
2023-05-22T00:16:41.718Z,10.52
2023-05-22T00:19:13.701Z,10.88
2023-05-22T00:21:42.994Z,10.80
2023-05-22T00:24:11.064Z,10.65
2023-05-22T00:26:38.910Z,11.63
2023-05-22T00:29:06.736Z,10.70
2023-05-22T00:31:34.570Z,10.20
2023-05-22T00:34:02.427Z,10.98
2023-05-22T00:36:30.381Z,9.43
2023-05-22T00:38:59.468Z,11.10
2023-05-22T00:41:27.461Z,10.25
2023-05-22T00:43:55.165Z,11.30
2023-05-22T00:46:24.563Z,11.02
2023-05-22T00:48:52.905Z,10.70
2023-05-22T00:51:21.530Z,9.93
2023-05-22T00:53:49.806Z,9.80
2023-05-22T00:56:19.959Z,9.98
2023-05-22T00:58:47.724Z,10.43
2023-05-22T01:01:16.162Z,9.95
2023-05-22T01:03:45.078Z,10.27
2023-05-22T01:06:14.665Z,9.90
2023-05-22T01:08:43.488Z,10.52
2023-05-22T01:11:14.673Z,10.30
2023-05-22T01:13:47.967Z,10.57
2023-05-22T01:16:25.613Z,9.93
2023-05-22T01:19:01.166Z,10.38
2023-05-22T01:21:35.609Z,10.30
2023-05-22T01:24:37.883Z,9.98
2023-05-22T01:27:35.220Z,9.82
2023-05-22T01:30:18.535Z,10.60
2023-05-22T01:32:48.690Z,9.98
2023-05-22T01:35:18.744Z,10.45
2023-05-22T01:37:46.844Z,10.70
2023-05-22T01:40:14.909Z,10.70
2023-05-22T01:42:42.848Z,10.70
2023-05-22T01:45:12.269Z,10.80
2023-05-22T01:47:40.116Z,11.25
2023-05-22T01:50:10.246Z,11.52
2023-05-22T01:52:42.171Z,11.77
2023-05-22T01:55:14.472Z,11.15
2023-05-22T01:57:47.804Z,11.48
2023-05-22T02:00:16.584Z,10.68
2023-05-22T02:02:47.555Z,10.65
2023-05-22T02:05:18.861Z,10.77
2023-05-22T02:07:47.278Z,11.13
2023-05-22T02:10:15.778Z,10.80
2023-05-22T02:12:43.500Z,11.02
2023-05-22T02:15:11.672Z,11.23
2023-05-22T02:17:41.475Z,11.30
2023-05-22T02:20:14.474Z,10.82
2023-05-22T02:22:45.098Z,10.10
2023-05-22T02:25:14.496Z,10.70
2023-05-22T02:27:43.102Z,9.90
2023-05-22T02:30:11.832Z,10.38
2023-05-22T02:32:40.160Z,11.13
2023-05-22T02:35:08.895Z,10.00
2023-05-22T02:37:36.822Z,11.30
2023-05-22T02:40:07.275Z,11.07
2023-05-22T02:42:35.523Z,11.20
2023-05-22T02:45:03.667Z,12.48
2023-05-22T02:47:31.419Z,12.68
2023-05-22T02:49:59.240Z,12.90
2023-05-22T02:52:28.376Z,13.18
2023-05-22T02:54:56.187Z,14.27
2023-05-22T02:57:25.332Z,14.25
2023-05-22T02:59:54.166Z,15.23
2023-05-22T03:02:21.938Z,15.50
2023-05-22T03:04:49.627Z,15.25
2023-05-22T03:07:17.371Z,17.53
2023-05-22T03:09:45.102Z,17.27
2023-05-22T03:12:12.851Z,18.45
2023-05-22T03:14:42.040Z,18.48
2023-05-22T03:17:09.734Z,19.67
2023-05-22T03:19:37.615Z,19.27
2023-05-22T03:22:06.615Z,20.27
2023-05-22T03:24:34.403Z,19.75
2023-05-22T03:27:02.118Z,20.05
2023-05-22T03:29:29.862Z,20.70
2023-05-22T03:31:59.969Z,21.58
2023-05-22T03:34:30.005Z,21.73
2023-05-22T03:36:58.063Z,22.17
2023-05-22T03:39:25.860Z,22.40
2023-05-22T03:41:53.586Z,23.80
2023-05-22T03:44:21.586Z,23.40
2023-05-22T03:46:49.263Z,23.77
2023-05-22T03:49:18.408Z,23.30
2023-05-22T03:51:46.196Z,24.23
2023-05-22T03:54:13.945Z,23.98
2023-05-22T03:56:41.682Z,24.10
2023-05-22T03:59:09.611Z,24.23
2023-05-22T04:01:39.349Z,25.50
2023-05-22T04:04:07.152Z,24.87
2023-05-22T04:06:43.000Z,25.90
2023-05-22T04:09:11.922Z,26.50
2023-05-22T04:11:42.143Z,26.92
2023-05-22T04:14:10.346Z,26.52
2023-05-22T04:16:38.187Z,26.52
2023-05-22T04:19:05.951Z,26.58
2023-05-22T04:21:34.443Z,27.27
2023-05-22T04:24:07.458Z,28.48
2023-05-22T04:26:36.174Z,27.30
2023-05-22T04:29:04.017Z,27.60
2023-05-22T04:31:32.558Z,28.42
2023-05-22T04:34:00.445Z,28.48
2023-05-22T04:36:29.085Z,28.58
2023-05-22T04:38:56.901Z,29.27
2023-05-22T04:41:26.673Z,27.50
2023-05-22T04:43:54.775Z,27.42
2023-05-22T04:46:22.704Z,27.60
2023-05-22T04:48:51.054Z,28.20
2023-05-22T04:51:18.929Z,28.38
2023-05-22T04:53:49.336Z,28.98
2023-05-22T04:56:27.978Z,28.08
2023-05-22T04:59:05.436Z,28.80
2023-05-22T05:01:35.100Z,29.48
2023-05-22T05:04:03.698Z,30.08
2023-05-22T05:06:31.660Z,28.93
2023-05-22T05:08:59.688Z,29.70
2023-05-22T05:11:27.423Z,30.48
2023-05-22T05:13:55.094Z,30.38
2023-05-22T05:16:25.213Z,29.57
2023-05-22T05:18:53.469Z,30.48
2023-05-22T05:21:21.446Z,31.02
2023-05-22T05:23:49.191Z,30.90
2023-05-22T05:26:16.947Z,31.27
2023-05-22T05:28:44.680Z,30.83
2023-05-22T05:31:12.599Z,32.13
2023-05-22T05:33:41.812Z,31.90
2023-05-22T05:36:10.059Z,30.15
2023-05-22T05:38:37.992Z,31.38
2023-05-22T05:41:06.025Z,30.40
2023-05-22T05:43:33.849Z,30.95
2023-05-22T05:46:01.830Z,29.98
2023-05-22T05:48:29.606Z,30.13
2023-05-22T05:50:58.743Z,30.77
2023-05-22T05:53:26.500Z,31.05
2023-05-22T05:55:54.293Z,30.30
2023-05-22T05:58:22.027Z,30.90
2023-05-22T06:00:49.835Z,30.15
2023-05-22T06:03:18.197Z,30.43
2023-05-22T06:05:47.010Z,31.05
2023-05-22T06:08:16.098Z,30.15
2023-05-22T06:10:43.800Z,29.23
2023-05-22T06:13:11.658Z,30.98
2023-05-22T06:15:39.452Z,29.98
2023-05-22T06:18:07.475Z,31.50
2023-05-22T06:20:35.301Z,33.67
2023-05-22T06:23:03.066Z,31.88
2023-05-22T06:25:32.227Z,32.85
2023-05-22T06:28:00.836Z,31.75
2023-05-22T06:30:39.459Z,32.00
2023-05-22T06:33:11.574Z,33.65
2023-05-22T06:35:39.522Z,33.20
2023-05-22T06:38:07.255Z,31.90
2023-05-22T06:40:36.443Z,31.77
2023-05-22T06:43:04.194Z,32.77
2023-05-22T06:45:31.959Z,33.13
2023-05-22T06:47:59.862Z,33.17
2023-05-22T06:50:27.660Z,34.25
2023-05-22T06:52:55.454Z,32.57
2023-05-22T06:55:23.633Z,32.55
2023-05-22T06:57:52.864Z,33.03
2023-05-22T07:00:21.886Z,31.38
2023-05-22T07:02:49.925Z,31.50
2023-05-22T07:05:18.206Z,32.30
2023-05-22T07:07:46.378Z,31.50
2023-05-22T07:10:14.670Z,29.58
2023-05-22T07:12:42.452Z,29.88
2023-05-22T07:15:14.457Z,28.80
2023-05-22T07:17:43.291Z,28.10
2023-05-22T07:20:12.029Z,27.85
2023-05-22T07:24:44.728Z,27.48
2023-05-22T07:27:12.465Z,27.55
2023-05-22T07:29:40.223Z,25.92
2023-05-22T07:32:08.903Z,23.73
2023-05-22T07:34:37.326Z,23.27
2023-05-22T07:37:08.352Z,22.80
2023-05-22T07:39:36.361Z,19.88
2023-05-22T07:42:06.164Z,18.95
2023-05-22T07:44:34.318Z,17.90
2023-05-22T07:47:02.116Z,15.27
2023-05-22T07:49:29.836Z,18.92
2023-05-22T07:51:57.542Z,17.88
2023-05-22T07:54:25.255Z,15.80
2023-05-22T07:56:53.337Z,15.82
2023-05-22T07:59:23.792Z,15.50
2023-05-22T08:03:41.690Z,16.35
2023-05-22T08:06:10.052Z,16.80
2023-05-22T08:08:37.851Z,17.37
2023-05-22T08:11:06.129Z,15.63
2023-05-22T08:13:34.280Z,15.85
2023-05-22T08:16:02.202Z,15.57
2023-05-22T08:18:30.317Z,15.25
2023-05-22T08:21:00.550Z,16.75
2023-05-22T08:23:28.392Z,16.83
2023-05-22T08:25:56.160Z,17.00
2023-05-22T08:28:23.927Z,16.65
2023-05-22T08:30:51.885Z,18.60
2023-05-22T08:33:20.137Z,18.05
2023-05-22T08:35:47.998Z,19.15
2023-05-22T08:38:17.597Z,18.30
2023-05-22T08:40:49.412Z,17.88
2023-05-22T08:43:17.127Z,17.08
2023-05-22T08:45:44.934Z,15.83
2023-05-22T08:48:14.545Z,14.45
2023-05-22T08:50:43.228Z,12.57
2023-05-22T08:53:14.845Z,12.63
2023-05-22T08:55:43.966Z,16.55
2023-05-22T08:58:12.609Z,13.43
2023-05-22T09:00:41.033Z,13.55
2023-05-22T09:03:10.257Z,13.43
2023-05-22T09:05:39.318Z,17.63
2023-05-22T09:08:19.157Z,15.52
2023-05-22T09:12:15.482Z,11.68
2023-05-22T09:14:43.819Z,11.23
2023-05-22T09:17:12.799Z,11.27
2023-05-22T09:19:44.825Z,9.05
2023-05-22T09:22:12.608Z,11.10
2023-05-22T09:24:42.089Z,10.80
2023-05-22T09:27:10.701Z,11.18
2023-05-22T09:29:50.325Z,12.53
2023-05-22T09:32:18.607Z,13.23
2023-05-22T09:34:47.373Z,12.88
2023-05-22T09:37:15.207Z,13.07
2023-05-22T09:39:45.075Z,12.57
2023-05-22T09:42:15.009Z,13.20
2023-05-22T09:44:44.182Z,13.52
2023-05-22T09:47:13.342Z,14.60
2023-05-22T09:49:43.114Z,14.82
2023-05-22T09:52:12.562Z,14.88
2023-05-22T09:54:44.755Z,15.07
2023-05-22T09:57:15.124Z,15.32
2023-05-22T09:59:43.820Z,15.95
2023-05-22T10:02:13.370Z,14.85
2023-05-22T10:04:42.549Z,16.27
2023-05-22T10:07:12.041Z,16.05
2023-05-22T10:09:40.755Z,15.52
2023-05-22T10:12:10.362Z,16.87
2023-05-22T10:14:38.093Z,17.65
2023-05-22T10:17:06.956Z,20.55
2023-05-22T10:19:40.348Z,20.17
2023-05-22T10:22:09.903Z,21.30
2023-05-22T10:24:38.354Z,20.63
2023-05-22T10:27:06.426Z,22.00
2023-05-22T10:29:37.571Z,22.60
2023-05-22T10:32:08.992Z,22.05
2023-05-22T10:34:43.603Z,21.90
2023-05-22T10:37:22.472Z,21.07
2023-05-22T10:40:00.745Z,21.33
2023-05-22T10:42:30.945Z,19.33
2023-05-22T10:44:59.689Z,20.27
2023-05-22T10:47:27.484Z,18.77
2023-05-22T10:50:06.197Z,18.80
2023-05-22T10:52:33.929Z,21.05
2023-05-22T10:55:02.336Z,20.45
2023-05-22T10:57:34.440Z,19.73
2023-05-22T13:30:57.812Z,10.52
2023-05-22T13:33:36.816Z,10.50
2023-05-22T13:36:05.557Z,10.93
2023-05-22T13:38:33.624Z,10.60
2023-05-22T13:41:01.329Z,10.32
2023-05-22T13:43:29.026Z,9.00
2023-05-22T13:45:56.745Z,8.85
2023-05-22T13:48:24.463Z,9.40
2023-05-22T13:50:53.584Z,9.85
2023-05-22T13:53:21.286Z,10.15
2023-05-22T13:55:49.017Z,8.68
2023-05-22T13:58:16.768Z,8.60
2023-05-22T14:00:44.477Z,7.60
2023-05-22T14:03:17.412Z,8.50
2023-05-22T14:05:45.452Z,8.30
2023-05-22T14:08:14.558Z,7.95
2023-05-22T14:10:42.328Z,7.90
2023-05-22T14:13:10.034Z,8.50
2023-05-22T14:15:37.816Z,8.55
2023-05-22T14:18:05.737Z,8.30
2023-05-22T14:20:33.416Z,8.85
2023-05-22T14:23:01.121Z,8.93
2023-05-22T14:25:30.287Z,8.82
2023-05-22T14:27:58.113Z,8.75
2023-05-22T14:30:25.782Z,8.65
2023-05-22T14:35:31.389Z,8.60
2023-05-22T14:37:59.306Z,8.65
2023-05-22T14:40:27.033Z,9.15
2023-05-22T14:42:54.760Z,9.10
2023-05-22T14:46:02.471Z,9.75
2023-05-22T14:48:30.192Z,10.23
2023-05-22T14:50:58.240Z,11.35
2023-05-22T14:53:26.005Z,14.13
2023-05-22T14:55:53.731Z,7.23
2023-05-22T15:00:54.115Z,0.10
2023-05-22T15:03:23.519Z,0.17
2023-05-22T15:05:51.221Z,0.00
2023-05-22T15:08:20.398Z,0.00
2023-05-22T16:03:34.359Z,0.10
2023-05-22T16:06:02.271Z,0.00
2023-05-22T16:08:29.970Z,0.00
2023-05-22T16:11:00.706Z,0.00
2023-05-22T16:13:28.614Z,0.00
2023-05-22T16:15:56.558Z,0.10
2023-05-22T16:18:24.356Z,0.00
2023-05-22T16:20:53.445Z,0.08
2023-05-22T16:23:21.156Z,0.00
2023-05-22T16:25:50.828Z,0.00
2023-05-22T16:28:18.964Z,0.10
2023-05-22T16:30:46.703Z,0.00
2023-05-22T16:33:14.476Z,13.48
2023-05-22T16:35:46.868Z,11.75
2023-05-22T16:38:16.176Z,9.80
2023-05-22T16:40:43.930Z,8.43
2023-05-22T16:43:13.723Z,8.13
2023-05-22T16:45:46.467Z,8.00
2023-05-22T16:48:14.366Z,7.77
2023-05-22T16:50:42.462Z,6.90
2023-05-22T16:53:10.220Z,6.50
2023-05-22T16:55:39.594Z,6.68
2023-05-22T16:58:08.991Z,5.57
2023-05-22T17:00:37.557Z,4.40
2023-05-22T17:03:06.743Z,3.80
2023-05-22T17:05:34.825Z,4.03
2023-05-22T17:08:03.075Z,4.20
2023-05-22T17:10:30.851Z,3.83
2023-05-22T17:12:59.924Z,3.83
2023-05-22T17:15:27.682Z,3.65
2023-05-22T17:17:55.501Z,3.30
2023-05-22T17:20:23.369Z,3.00
2023-05-22T17:22:51.137Z,3.00
2023-05-22T17:25:19.003Z,2.72
2023-05-22T17:27:46.690Z,3.00
2023-05-22T17:30:15.959Z,2.60
2023-05-22T17:32:44.854Z,2.90
2023-05-22T17:35:12.633Z,2.90
2023-05-22T17:37:40.581Z,2.80
2023-05-22T17:40:09.943Z,2.47
2023-05-22T17:42:37.649Z,2.53
2023-05-22T17:45:06.021Z,2.40
2023-05-22T17:47:35.183Z,2.17
2023-05-22T17:50:03.023Z,2.30
2023-05-22T17:52:31.021Z,2.65
2023-05-22T17:54:58.741Z,2.40
2023-05-22T17:57:26.631Z,2.65
2023-05-22T17:59:54.323Z,2.70
2023-05-22T18:02:22.136Z,3.13
2023-05-22T18:04:51.272Z,2.83
2023-05-22T18:07:20.000Z,2.90
2023-05-22T18:09:48.181Z,2.60
2023-05-22T18:12:31.071Z,2.70
2023-05-22T18:14:59.809Z,2.88
2023-05-22T18:17:27.612Z,2.63
2023-05-22T18:19:56.692Z,2.50
2023-05-22T18:22:25.518Z,2.60
2023-05-22T18:24:53.226Z,2.40
2023-05-22T18:27:21.092Z,2.80
2023-05-22T18:29:50.459Z,3.03
2023-05-22T18:32:18.194Z,2.83
2023-05-22T18:34:46.521Z,3.10
2023-05-22T18:37:16.393Z,2.67
2023-05-22T18:39:44.103Z,3.03
2023-05-22T18:42:11.838Z,2.75
2023-05-22T18:44:39.573Z,3.20
2023-05-22T18:47:07.763Z,3.20
2023-05-22T18:49:35.516Z,3.35
2023-05-22T18:52:03.287Z,3.63
2023-05-22T18:54:32.388Z,3.10
2023-05-22T18:57:00.155Z,3.17
2023-05-22T18:59:27.932Z,2.97
2023-05-22T19:01:55.688Z,3.17
2023-05-22T19:04:23.679Z,2.55
2023-05-22T19:06:53.760Z,2.63
2023-05-22T19:09:22.094Z,2.53
2023-05-22T19:11:51.257Z,2.57
2023-05-22T19:14:19.103Z,2.80
2023-05-22T19:16:46.897Z,2.92
2023-05-22T19:19:14.840Z,2.60
2023-05-22T19:21:42.690Z,2.55
2023-05-22T19:24:10.542Z,2.70
2023-05-22T19:26:38.256Z,2.70
2023-05-22T19:29:07.426Z,2.97
2023-05-22T19:31:36.083Z,2.90
2023-05-22T19:34:03.761Z,3.38
2023-05-22T19:36:31.882Z,2.95
2023-05-22T19:38:59.781Z,3.10
2023-05-22T19:41:27.624Z,3.03
2023-05-22T19:43:55.384Z,3.20
2023-05-22T19:46:24.519Z,3.53
2023-05-22T19:48:52.461Z,2.95
2023-05-22T19:51:20.214Z,3.10
2023-05-22T19:53:47.948Z,3.38
2023-05-22T19:56:16.002Z,3.33
2023-05-22T19:58:43.679Z,3.05
2023-05-22T20:01:11.594Z,3.75
2023-05-22T20:03:41.090Z,3.80
2023-05-22T20:06:08.948Z,4.30
2023-05-22T20:08:37.453Z,4.43
2023-05-22T20:11:05.162Z,4.20
2023-05-22T20:13:32.947Z,4.40
2023-05-22T20:16:03.517Z,4.07
2023-05-22T20:18:31.726Z,4.22
2023-05-22T20:21:00.848Z,4.28
2023-05-22T20:23:29.812Z,4.50
2023-05-22T20:25:57.575Z,4.35
2023-05-22T20:28:26.398Z,4.72
2023-05-22T20:30:54.108Z,4.85
2023-05-22T20:33:21.887Z,4.82
2023-05-22T20:35:52.839Z,5.32
2023-05-22T20:38:22.424Z,5.30
2023-05-22T20:40:51.862Z,5.18
2023-05-22T20:43:20.021Z,5.32
2023-05-22T20:45:48.038Z,5.65
2023-05-22T20:48:16.587Z,5.78
2023-05-22T20:50:47.135Z,5.57
2023-05-22T20:53:14.983Z,6.22
2023-05-22T20:55:44.156Z,6.30
2023-05-22T20:58:11.892Z,6.18
2023-05-22T21:00:41.489Z,6.07
2023-05-22T21:03:09.430Z,6.45
2023-05-22T21:05:37.754Z,6.97
2023-05-22T21:08:05.584Z,7.03
2023-05-22T21:10:33.271Z,8.07
2023-05-22T21:13:02.395Z,7.63
2023-05-22T21:15:30.121Z,8.38
2023-05-22T21:17:57.846Z,8.82
2023-05-22T21:20:25.806Z,8.45
2023-05-22T21:22:53.507Z,8.85
2023-05-22T21:25:21.487Z,8.80
2023-05-22T21:27:49.407Z,9.43
2023-05-22T21:30:18.573Z,9.60
2023-05-22T21:32:46.310Z,9.45
2023-05-22T21:35:14.110Z,10.33
2023-05-22T21:37:41.865Z,10.27
2023-05-22T21:40:10.213Z,9.60
2023-05-22T21:42:46.521Z,10.27
2023-05-22T21:45:15.010Z,10.40
2023-05-22T21:47:44.393Z,10.75
2023-05-22T21:50:12.728Z,8.95
2023-05-22T21:52:40.586Z,8.15
2023-05-22T21:55:08.822Z,7.63
2023-05-22T21:57:37.901Z,6.93
2023-05-22T22:00:06.171Z,6.27
2023-05-22T22:02:34.025Z,5.65
2023-05-22T22:05:03.331Z,5.07
2023-05-22T22:07:31.126Z,4.80
2023-05-22T22:09:59.299Z,5.20
2023-05-22T22:12:27.069Z,4.65
2023-05-22T22:14:54.786Z,4.55
2023-05-22T22:17:23.419Z,4.20
2023-05-22T22:19:53.569Z,4.35
2023-05-22T22:22:22.836Z,4.30
2023-05-22T22:24:50.753Z,4.32
2023-05-22T22:27:19.663Z,4.50
2023-05-22T22:29:47.389Z,4.43
2023-05-22T22:32:15.207Z,4.30
2023-05-22T22:34:43.155Z,4.40
2023-05-22T22:37:11.166Z,4.10
2023-05-22T22:39:40.347Z,4.55
2023-05-22T22:42:08.706Z,4.43
2023-05-22T22:44:36.398Z,4.68
2023-05-22T22:47:04.628Z,4.78
2023-05-22T22:49:32.817Z,4.90
2023-05-22T22:52:00.847Z,5.20
2023-05-22T22:54:28.707Z,5.20
2023-05-22T22:56:58.006Z,4.88
2023-05-22T22:59:25.688Z,4.70
2023-05-22T23:01:53.663Z,4.63
2023-05-22T23:04:21.531Z,5.72
2023-05-22T23:06:49.388Z,5.60
2023-05-22T23:09:17.478Z,5.60
2023-05-22T23:11:45.272Z,5.68
2023-05-22T23:14:14.329Z,5.43
2023-05-22T23:16:42.053Z,5.63
2023-05-22T23:19:10.968Z,5.77
2023-05-22T23:21:38.852Z,5.93
2023-05-22T23:24:07.301Z,6.47
2023-05-22T23:26:35.301Z,5.97
2023-05-22T23:29:03.363Z,6.40
2023-05-22T23:31:32.536Z,6.35
2023-05-22T23:34:00.463Z,6.90
2023-05-22T23:36:28.311Z,6.53
2023-05-22T23:38:56.022Z,6.88
2023-05-22T23:41:24.437Z,6.72
2023-05-22T23:43:52.149Z,6.57
2023-05-22T23:46:21.283Z,7.22
2023-05-22T23:48:50.516Z,7.25
2023-05-22T23:51:18.741Z,7.15
2023-05-22T23:53:46.436Z,6.82
2023-05-22T23:56:14.221Z,6.90
2023-05-22T23:58:42.028Z,7.28
